Flight Track Log - Related Links

Times and Time Zones

All times are in EDT time to prevent confusion due to time zone crossing. See the N2441K flight status page for this flight to view local times or setup timezone preferences in your user account.

Time Position Orientation Groundspeed Altitude Reporting Facility
EDT Latitude Longitude Course Direction KTS MPH feet Rate Location/Type
Fri 08:03:20 PM 36.2303 -94.3089 350° North 193 222 3,100  Level Kansas City Center
Fri 08:04:22 PM 36.2178 -94.3703 256° West 188 216 5,400 1,790 Climbing Kansas City Center
Fri 08:05:24 PM 36.2717 -94.3753 356° North 193 222 6,800 1,403 Climbing Kansas City Center
Fri 08:06:26 PM 36.3269 -94.3744 North 194 223 8,300 1,355 Climbing Kansas City Center
Fri 08:07:28 PM 36.3822 -94.3989 340° North 207 238 9,600 1,306 Climbing Kansas City Center
Fri 08:08:00 PM 36.6577 -94.3912 350° North  Level Estimated
Fri 08:08:30 PM 36.4369 -94.4042 356° North 205 236 11,000  Level Kansas City Center
Fri 08:09:32 PM 36.4944 -94.3992 North 205 236 12,500 1,548 Climbing Kansas City Center
Fri 08:10:34 PM 36.5628 -94.4089 353° North 211 243 14,200 1,548 Climbing Kansas City Center
Fri 08:11:36 PM 36.6219 -94.4056 North 212 244 15,700 919 Climbing Kansas City Center
Fri 08:12:38 PM 36.6831 -94.4192 350° North 218 251 16,100 97 Climbing Kansas City Center
Fri 08:13:40 PM 36.7553 -94.4256 356° North 241 277 15,900 -48 Descending Kansas City Center
Fri 08:14:42 PM 36.8267 -94.4289 358° North 251 289 16,000 48 Climbing Kansas City Center
Fri 08:15:44 PM 36.8969 -94.4428 351° North 253 291 16,000  Level Kansas City Center
Fri 08:16:46 PM 36.9786 -94.4758 342° North 256 295 16,000  Level Kansas City Center
Fri 08:17:48 PM 37.0489 -94.4867 353° North 257 296 16,000  Level Kansas City Center
Fri 08:18:50 PM 37.1178 -94.4869 360° North 253 291 16,000  Level Kansas City Center
Fri 08:19:52 PM 37.1850 -94.5072 346° North 251 289 16,000  Level Kansas City Center
Fri 08:20:55 PM 37.2522 -94.5344 342° North 251 289 16,000  Level Kansas City Center
Fri 08:21:57 PM 37.3228 -94.5497 350° North 259 298 16,000  Level Kansas City Center
Fri 08:22:59 PM 37.4067 -94.5700 349° North 257 296 16,000  Level Kansas City Center
Fri 08:24:01 PM 37.4797 -94.5856 350° North 262 302 16,000  Level Kansas City Center
Fri 08:25:03 PM 37.5508 -94.5994 351° North 260 299 16,000  Level Kansas City Center
Fri 08:26:05 PM 37.6222 -94.6106 353° North 259 298 16,000  Level Kansas City Center
Fri 08:27:07 PM 37.6956 -94.6244 351° North 258 297 16,000 -97 Level Kansas City Center
Fri 08:28:09 PM 37.7722 -94.6492 346° North 256 295 15,800 -242 Descending Kansas City Center
Fri 08:29:11 PM 37.8422 -94.6606 353° North 261 300 15,500 -339 Descending Kansas City Center
Fri 08:30:13 PM 37.9131 -94.6661 356° North 266 306 15,100 -581 Descending Kansas City Center
Fri 08:31:15 PM 37.9944 -94.6922 346° North 269 310 14,300 -871 Descending Kansas City Center
Fri 08:32:17 PM 38.0625 -94.7175 344° North 267 307 13,300 -1,452 Descending Kansas City Center
Fri 08:33:19 PM 38.1375 -94.7417 346° North 254 292 11,300 -1,694 Descending Kansas City Center
Fri 08:34:21 PM 38.1981 -94.7542 351° North 235 270 9,800 -1,597 Descending Kansas City Center
Fri 08:35:23 PM 38.2661 -94.7656 353° North 226 260 8,000 -1,548 Descending Kansas City Center
Fri 08:36:25 PM 38.3264 -94.7733 354° North 226 260 6,600 -1,210 Descending Kansas City Center
Fri 08:37:27 PM 38.3942 -94.7942 346° North 223 257 5,500 -774 Descending Kansas City Center
Fri 08:38:29 PM 38.4483 -94.8111 346° North 212 244 5,000 -629 Descending Kansas City Center
Fri 08:39:31 PM 38.5100 -94.8303 346° North 204 235 4,200 -629 Descending Kansas City Center
Fri 08:40:33 PM 38.5619 -94.8453 347° North 197 227 3,700 -532 Descending Kansas City Center
Fri 08:41:35 PM 38.6200 -94.8617 348° North 191 220 3,100 -339 Descending Kansas City Center
Fri 08:42:37 PM 38.6672 -94.8792 344° North 185 213 3,000 -97 Descending Kansas City Center
Fri 08:43:39 PM 38.7094 -94.8911 348° North 164 189 2,900 -290 Descending Kansas City Center
Fri 08:44:41 PM 38.7522 -94.8925 359° North 139 160 2,400 -532 Descending Kansas City Center
Fri 08:45:43 PM 38.7819 -94.8917 North 113 130 1,800 -581 Descending Kansas City Center
Fri 08:46:45 PM 38.8139 -94.8911 North 105 121 1,200 -581 Descending Kansas City Center

Login

Don't have an account? Register now (free) for customized features, flight alerts, and more!